createdAt,value
2023-07-21T00:02:42.839Z,99508.55
2023-07-21T00:05:45.647Z,99512.92
2023-07-21T00:08:48.354Z,99512.31
2023-07-21T00:11:51.104Z,99506.20
2023-07-21T00:14:53.772Z,99508.02
2023-07-21T00:17:56.661Z,99507.06
2023-07-21T00:21:00.348Z,99508.31
2023-07-21T00:24:03.745Z,99503.00
2023-07-21T00:27:07.074Z,99504.30
2023-07-21T00:30:10.368Z,99498.66
2023-07-21T00:33:13.069Z,99500.12
2023-07-21T00:36:15.751Z,99501.45
2023-07-21T00:39:18.522Z,99498.21
2023-07-21T00:42:21.952Z,99499.32
2023-07-21T00:45:24.770Z,99505.42
2023-07-21T00:48:27.558Z,99504.34
2023-07-21T00:51:30.328Z,99509.70
2023-07-21T00:54:33.332Z,99509.56
2023-07-21T00:57:36.860Z,99509.50
2023-07-21T01:00:42.032Z,99506.88
2023-07-21T01:03:45.214Z,99508.11
2023-07-21T01:06:48.911Z,99505.34
2023-07-21T01:09:51.676Z,99502.39
2023-07-21T01:12:54.391Z,99498.59
2023-07-21T01:15:57.968Z,99497.81
2023-07-21T01:19:02.425Z,99494.45
2023-07-21T01:22:22.339Z,99495.98
2023-07-21T01:25:26.246Z,99499.36
2023-07-21T01:28:30.386Z,99502.20
2023-07-21T01:31:36.418Z,99500.18
2023-07-21T01:34:40.924Z,99498.11
2023-07-21T01:37:46.494Z,99496.42
2023-07-21T01:40:49.898Z,99496.52
2023-07-21T01:43:54.756Z,99489.78
2023-07-21T01:46:57.709Z,99486.42
2023-07-21T01:50:01.441Z,99487.82
2023-07-21T01:53:09.265Z,99483.98
2023-07-21T01:56:29.880Z,99484.39
2023-07-21T01:59:32.825Z,99485.73
2023-07-21T02:02:35.943Z,99486.73
2023-07-21T02:05:38.870Z,99486.75
2023-07-21T02:08:41.669Z,99485.39
2023-07-21T02:11:45.481Z,99483.67
2023-07-21T02:14:48.175Z,99479.36
2023-07-21T02:17:50.915Z,99474.80
2023-07-21T02:20:53.847Z,99472.39
2023-07-21T02:23:56.727Z,99467.58
2023-07-21T02:27:00.674Z,99470.39
2023-07-21T02:30:05.016Z,99469.99
2023-07-21T02:33:07.779Z,99466.14
2023-07-21T02:36:10.598Z,99462.95
2023-07-21T02:39:13.357Z,99463.04
2023-07-21T02:42:16.036Z,99462.80
2023-07-21T02:45:19.075Z,99459.87
2023-07-21T02:48:23.035Z,99460.33
2023-07-21T02:51:25.820Z,99456.70
2023-07-21T02:54:28.525Z,99453.94
2023-07-21T02:57:31.339Z,99454.69
2023-07-21T03:00:34.497Z,99454.03
2023-07-21T03:03:37.667Z,99454.98
2023-07-21T03:06:42.713Z,99462.17
2023-07-21T03:09:45.877Z,99463.69
2023-07-21T03:12:48.892Z,99467.73
2023-07-21T03:15:54.746Z,99468.14
2023-07-21T03:18:57.523Z,99469.77
2023-07-21T03:22:01.905Z,99468.30
2023-07-21T03:25:08.073Z,99472.58
2023-07-21T03:28:11.101Z,99467.36
2023-07-21T03:31:13.835Z,99473.06
2023-07-21T03:34:16.672Z,99476.38
2023-07-21T03:37:19.478Z,99479.81
2023-07-21T03:40:22.166Z,99478.74
2023-07-21T03:43:24.888Z,99476.30
2023-07-21T03:46:27.877Z,99470.96
2023-07-21T03:49:30.962Z,99468.88
2023-07-21T03:52:33.645Z,99469.96
2023-07-21T03:55:37.481Z,99468.43
2023-07-21T03:58:40.169Z,99470.63
2023-07-21T04:01:42.950Z,99471.48
2023-07-21T04:04:46.963Z,99470.70
2023-07-21T04:07:49.890Z,99473.90
2023-07-21T04:10:52.515Z,99475.14
2023-07-21T04:13:55.143Z,99472.17
2023-07-21T04:16:57.802Z,99472.83
2023-07-21T04:20:00.418Z,99477.23
2023-07-21T04:23:03.546Z,99477.88
2023-07-21T04:26:08.184Z,99472.77
2023-07-21T04:29:21.410Z,99471.88
2023-07-21T04:32:33.047Z,99471.58
2023-07-21T04:35:35.736Z,99469.77
2023-07-21T04:38:38.410Z,99469.67
2023-07-21T04:41:41.659Z,99467.08
2023-07-21T04:44:46.126Z,99466.90
2023-07-21T04:47:50.773Z,99465.99
2023-07-21T04:50:54.080Z,99463.80
2023-07-21T04:53:56.830Z,99456.66
2023-07-21T04:56:59.477Z,99459.13
2023-07-21T05:00:03.717Z,99456.85
2023-07-21T05:03:06.587Z,99457.43
2023-07-21T05:06:10.885Z,99461.27
2023-07-21T05:09:14.557Z,99461.39
2023-07-21T05:12:17.190Z,99463.83
2023-07-21T05:15:19.859Z,99460.02
2023-07-21T05:18:22.511Z,99456.45
2023-07-21T05:21:25.481Z,99454.12
2023-07-21T05:24:28.193Z,99455.27
2023-07-21T05:27:30.856Z,99455.52
2023-07-21T05:30:33.499Z,99454.71
2023-07-21T05:33:37.233Z,99452.23
2023-07-21T05:36:40.165Z,99450.88
2023-07-21T05:39:43.213Z,99449.86
2023-07-21T05:42:49.084Z,99452.08
2023-07-21T05:45:51.801Z,99450.83
2023-07-21T05:48:54.469Z,99451.14
2023-07-21T05:51:57.184Z,99444.98
2023-07-21T05:55:00.081Z,99447.67
2023-07-21T05:58:02.758Z,99443.30
2023-07-21T06:01:05.570Z,99446.54
2023-07-21T06:04:08.537Z,99448.02
2023-07-21T06:07:11.328Z,99452.45
2023-07-21T06:10:14.178Z,99454.70
2023-07-21T06:13:16.815Z,99455.77
2023-07-21T06:16:19.546Z,99452.65
2023-07-21T06:19:22.227Z,99452.73
2023-07-21T06:22:25.013Z,99456.88
2023-07-21T06:25:27.877Z,99457.21
2023-07-21T06:28:30.756Z,99452.95
2023-07-21T06:31:33.485Z,99450.66
2023-07-21T06:34:36.184Z,99451.27
2023-07-21T06:37:41.779Z,99447.67
2023-07-21T06:40:44.495Z,99451.11
2023-07-21T06:43:47.263Z,99448.58
2023-07-21T06:46:51.081Z,99440.84
2023-07-21T06:49:53.811Z,99442.70
2023-07-21T06:52:56.466Z,99445.65
2023-07-21T06:55:59.174Z,99444.53
2023-07-21T06:59:01.858Z,99440.88
2023-07-21T07:02:04.829Z,99440.00
2023-07-21T07:05:07.897Z,99438.00
2023-07-21T07:08:11.842Z,99439.29
2023-07-21T07:11:14.512Z,99438.05
2023-07-21T07:14:17.178Z,99435.77
2023-07-21T07:17:19.831Z,99441.70
2023-07-21T07:20:23.094Z,99438.39
2023-07-21T07:23:25.861Z,99437.92
2023-07-21T07:26:33.184Z,99438.63
2023-07-21T07:29:36.726Z,99435.95
2023-07-21T07:32:39.487Z,99437.73
2023-07-21T07:35:54.316Z,99434.91
2023-07-21T07:38:57.321Z,99434.89
2023-07-21T07:42:01.809Z,99435.48
2023-07-21T07:45:04.769Z,99433.77
2023-07-21T07:48:10.389Z,99430.39
2023-07-21T07:51:13.139Z,99431.64
2023-07-21T07:54:16.313Z,99434.52
2023-07-21T07:57:20.601Z,99431.50
2023-07-21T08:00:23.624Z,99430.70
2023-07-21T08:03:26.928Z,99436.02
2023-07-21T08:06:31.113Z,99433.23
2023-07-21T08:09:34.044Z,99431.59
2023-07-21T08:12:36.732Z,99438.45
2023-07-21T08:15:44.211Z,99435.27
2023-07-21T08:18:46.900Z,99428.02
2023-07-21T08:21:49.570Z,99426.48
2023-07-21T08:24:53.851Z,99422.25
2023-07-21T08:27:56.606Z,99417.54
2023-07-21T08:30:59.927Z,99418.45
2023-07-21T08:34:02.974Z,99419.15
2023-07-21T08:37:06.667Z,99423.63
2023-07-21T08:40:10.052Z,99426.08
2023-07-21T08:43:12.810Z,99419.76
2023-07-21T08:46:16.646Z,99415.13
2023-07-21T08:49:19.598Z,99410.95
2023-07-21T08:52:22.283Z,99404.52
2023-07-21T08:55:26.675Z,99400.31
2023-07-21T08:58:30.144Z,99402.70
2023-07-21T09:01:32.886Z,99405.63
2023-07-21T09:04:36.047Z,99408.52
2023-07-21T09:07:42.849Z,99405.56
2023-07-21T09:10:45.551Z,99394.82
2023-07-21T09:13:55.035Z,99392.06
2023-07-21T09:16:58.663Z,99386.88
2023-07-21T09:20:08.780Z,99387.98
2023-07-21T09:23:11.647Z,99390.47
2023-07-21T09:26:21.991Z,99390.84
2023-07-21T09:29:25.979Z,99389.86
2023-07-21T09:32:28.970Z,99383.98
2023-07-21T09:35:31.957Z,99383.18
2023-07-21T09:38:36.293Z,99383.23
2023-07-21T09:41:41.916Z,99384.35
2023-07-21T09:44:49.284Z,99386.15
2023-07-21T09:47:52.271Z,99388.33
2023-07-21T09:50:59.790Z,99381.02
2023-07-21T09:54:06.299Z,99382.48
2023-07-21T09:57:17.829Z,99378.69
2023-07-21T10:00:21.495Z,99375.09
2023-07-21T10:03:24.320Z,99374.08
2023-07-21T10:06:32.427Z,99370.45
2023-07-21T10:09:37.225Z,99372.62
2023-07-21T10:12:51.001Z,99366.71
2023-07-21T10:15:59.329Z,99366.06
2023-07-21T10:19:13.818Z,99364.04
2023-07-21T10:22:26.803Z,99357.20
2023-07-21T10:25:29.512Z,99352.33
2023-07-21T10:28:35.584Z,99349.67
2023-07-21T10:31:40.011Z,99345.34
2023-07-21T10:34:44.174Z,99343.98
2023-07-21T10:38:11.937Z,99341.86
2023-07-21T10:41:14.610Z,99332.93
2023-07-21T10:44:18.439Z,99326.84
2023-07-21T10:47:23.988Z,99324.92
2023-07-21T10:50:26.925Z,99326.14
2023-07-21T10:53:30.099Z,99325.95
2023-07-21T10:56:52.744Z,99331.30
2023-07-21T10:59:55.590Z,99325.36
2023-07-21T11:02:58.660Z,99322.02
2023-07-21T11:06:02.243Z,99318.84
2023-07-21T11:09:05.334Z,99313.02
2023-07-21T11:12:08.607Z,99316.36
2023-07-21T11:15:11.583Z,99318.38
2023-07-21T11:18:14.342Z,99321.88
2023-07-21T11:21:17.113Z,99318.16
2023-07-21T11:24:23.975Z,99317.61
2023-07-21T11:27:30.597Z,99315.68
2023-07-21T11:30:33.331Z,99316.05
2023-07-21T11:33:50.028Z,99305.45
2023-07-21T11:36:59.265Z,99307.56
2023-07-21T11:40:08.999Z,99302.19
2023-07-21T11:43:11.614Z,99297.73
2023-07-21T11:46:27.107Z,99285.03
2023-07-21T11:49:29.881Z,99281.63
2023-07-21T11:52:34.892Z,99273.08
2023-07-21T11:55:38.450Z,99264.17
2023-07-21T11:58:41.181Z,99263.70
2023-07-21T12:01:44.261Z,99270.39
2023-07-21T12:04:47.309Z,99271.98
2023-07-21T12:07:50.042Z,99267.38
2023-07-21T12:10:52.767Z,99268.34
2023-07-21T12:13:55.535Z,99268.98
2023-07-21T12:16:58.464Z,99267.17
2023-07-21T12:20:01.378Z,99264.98
2023-07-21T12:23:04.277Z,99266.33
2023-07-21T12:26:09.445Z,99249.46
2023-07-21T12:29:13.359Z,99246.88
2023-07-21T12:32:18.722Z,99240.47
2023-07-21T12:35:21.666Z,99240.61
2023-07-21T12:38:24.540Z,99237.80
2023-07-21T12:41:27.741Z,99238.15
2023-07-21T12:44:30.898Z,99230.44
2023-07-21T12:47:34.505Z,99227.64
2023-07-21T12:50:37.255Z,99234.82
2023-07-21T12:53:39.888Z,99235.73
2023-07-21T12:56:42.775Z,99234.52
2023-07-21T12:59:45.385Z,99221.71
2023-07-21T13:02:48.196Z,99217.57
2023-07-21T13:05:56.619Z,99214.80
2023-07-21T13:09:00.263Z,99209.76
2023-07-21T13:12:03.781Z,99205.45
2023-07-21T13:15:06.876Z,99199.84
2023-07-21T13:18:09.871Z,99203.37
2023-07-21T13:21:12.662Z,99202.06
2023-07-21T13:24:15.430Z,99203.85
2023-07-21T13:27:18.127Z,99202.54
2023-07-21T13:30:20.781Z,99202.89
2023-07-21T13:33:23.455Z,99202.88
2023-07-21T13:36:26.343Z,99199.19
2023-07-21T13:39:29.633Z,99195.57
2023-07-21T13:42:32.782Z,99195.68
2023-07-21T13:45:35.488Z,99197.54
2023-07-21T13:48:38.528Z,99191.07
2023-07-21T13:51:42.171Z,99190.77
2023-07-21T13:54:45.144Z,99190.20
2023-07-21T13:57:47.983Z,99181.33
2023-07-21T14:00:51.353Z,99183.20
2023-07-21T14:03:55.943Z,99176.75
2023-07-21T14:06:59.247Z,99181.12
2023-07-21T14:10:02.792Z,99183.52
2023-07-21T14:13:06.090Z,99188.22
2023-07-21T14:16:10.283Z,99189.50
2023-07-21T14:19:14.017Z,99184.17
2023-07-21T14:22:16.719Z,99184.70
2023-07-21T14:25:20.283Z,99180.59
2023-07-21T14:28:22.985Z,99182.00
2023-07-21T14:31:26.482Z,99177.38
2023-07-21T14:34:29.308Z,99181.29
2023-07-21T14:37:31.959Z,99176.80
2023-07-21T14:40:35.456Z,99179.75
2023-07-21T14:43:38.712Z,99180.88
2023-07-21T14:46:42.004Z,99179.44
2023-07-21T14:49:44.800Z,99181.88
2023-07-21T14:52:48.068Z,99183.91
2023-07-21T14:55:50.948Z,99178.62
2023-07-21T14:58:53.699Z,99180.19
2023-07-21T15:01:58.665Z,99177.14
2023-07-21T15:05:01.479Z,99181.13
2023-07-21T15:08:04.602Z,99183.91
2023-07-21T15:11:08.678Z,99187.23
2023-07-21T15:14:11.484Z,99187.98
2023-07-21T15:17:14.274Z,99193.45
2023-07-21T15:20:17.733Z,99188.09
2023-07-21T15:23:21.461Z,99190.45
2023-07-21T15:26:24.777Z,99184.70
2023-07-21T15:29:29.684Z,99181.63
2023-07-21T15:32:32.582Z,99171.40
2023-07-21T15:35:45.932Z,99172.52
2023-07-21T15:38:48.848Z,99168.38
2023-07-21T15:41:51.901Z,99171.17
2023-07-21T15:44:54.988Z,99169.05
2023-07-21T15:47:57.818Z,99162.48
2023-07-21T15:51:00.864Z,99165.48
2023-07-21T15:54:16.326Z,99167.33
2023-07-21T15:57:19.895Z,99160.83
2023-07-21T16:00:22.662Z,99164.77
2023-07-21T16:03:27.232Z,99160.85
2023-07-21T16:06:30.023Z,99159.46
2023-07-21T16:09:32.708Z,99159.33
2023-07-21T16:12:35.664Z,99156.00
2023-07-21T16:15:38.391Z,99154.79
2023-07-21T16:18:41.207Z,99161.48
2023-07-21T16:21:43.922Z,99162.96
2023-07-21T16:24:46.748Z,99164.80
2023-07-21T16:27:55.261Z,99164.48
2023-07-21T16:30:58.363Z,99166.05
2023-07-21T16:34:01.068Z,99165.85
2023-07-21T16:37:04.783Z,99160.27
2023-07-21T16:40:08.674Z,99166.56
2023-07-21T16:43:12.054Z,99170.99
2023-07-21T16:46:14.869Z,99179.90
2023-07-21T16:49:17.999Z,99183.94
2023-07-21T16:52:20.626Z,99199.42
2023-07-21T16:55:23.323Z,99211.01
2023-07-21T16:58:28.285Z,99221.85
2023-07-21T17:01:33.031Z,99216.73
2023-07-21T17:04:36.945Z,99211.96
2023-07-21T17:07:40.186Z,99212.05
2023-07-21T17:10:42.990Z,99210.00
2023-07-21T17:13:45.866Z,99199.29
2023-07-21T17:16:48.762Z,99194.84
2023-07-21T17:19:51.607Z,99185.05
2023-07-21T17:22:54.275Z,99190.43
2023-07-21T17:25:57.923Z,99184.94
2023-07-21T17:29:00.731Z,99171.64
2023-07-21T17:32:03.534Z,99170.40
2023-07-21T17:35:07.353Z,99169.20
2023-07-21T17:38:10.089Z,99169.36
2023-07-21T17:41:12.939Z,99166.48
2023-07-21T17:44:15.744Z,99161.40
2023-07-21T17:47:18.682Z,99157.11
2023-07-21T17:50:21.647Z,99160.16
2023-07-21T17:53:24.505Z,99162.22
2023-07-21T17:56:27.322Z,99167.95
2023-07-21T17:59:30.040Z,99171.64
2023-07-21T18:02:32.835Z,99164.65
2023-07-21T18:05:37.525Z,99165.45
2023-07-21T18:08:43.359Z,99162.19
2023-07-21T18:11:46.124Z,99151.13
2023-07-21T18:14:51.768Z,99147.80
2023-07-21T18:17:55.693Z,99155.63
2023-07-21T18:21:04.336Z,99156.67
2023-07-21T18:24:09.818Z,99168.86
2023-07-21T18:27:12.584Z,99174.83
2023-07-21T18:30:15.379Z,99178.40
2023-07-21T18:33:21.878Z,99178.56
2023-07-21T18:36:24.602Z,99178.10
2023-07-21T18:39:27.380Z,99174.85
2023-07-21T18:42:30.021Z,99177.84
2023-07-21T18:45:32.838Z,99172.63
2023-07-21T18:48:35.505Z,99176.59
2023-07-21T18:51:38.195Z,99177.34
2023-07-21T18:54:53.167Z,99182.61
2023-07-21T18:58:01.310Z,99186.48
2023-07-21T19:01:04.199Z,99183.80
2023-07-21T19:04:07.896Z,99194.86
2023-07-21T19:07:10.601Z,99195.03
2023-07-21T19:10:13.300Z,99202.95
2023-07-21T19:13:15.962Z,99205.54
2023-07-21T19:16:24.190Z,99200.77
2023-07-21T19:19:26.997Z,99211.23
2023-07-21T19:22:29.661Z,99218.93
2023-07-21T19:25:32.300Z,99209.63
2023-07-21T19:28:36.098Z,99212.48
2023-07-21T19:31:40.148Z,99223.85
2023-07-21T19:34:45.441Z,99229.27
2023-07-21T19:37:48.141Z,99228.19
2023-07-21T19:40:51.488Z,99221.41
2023-07-21T19:43:54.158Z,99219.91
2023-07-21T19:46:57.077Z,99222.72
2023-07-21T19:49:59.716Z,99224.60
2023-07-21T19:53:02.708Z,99230.14
2023-07-21T19:56:14.563Z,99237.31
2023-07-21T19:59:17.296Z,99237.65
2023-07-21T20:02:20.111Z,99237.61
2023-07-21T20:05:23.232Z,99235.51
2023-07-21T20:08:25.930Z,99237.19
2023-07-21T20:11:29.111Z,99239.40
2023-07-21T20:14:32.204Z,99245.67
2023-07-21T20:17:34.991Z,99250.70
2023-07-21T20:20:41.252Z,99255.90
2023-07-21T20:23:43.977Z,99257.78
2023-07-21T20:26:47.073Z,99262.03
2023-07-21T20:29:49.740Z,99261.70
2023-07-21T20:32:52.508Z,99263.92
2023-07-21T20:35:55.251Z,99276.77
2023-07-21T20:38:57.890Z,99282.11
2023-07-21T20:42:03.650Z,99291.05
2023-07-21T20:45:07.505Z,99295.50
2023-07-21T20:48:11.683Z,99296.06
2023-07-21T20:51:14.370Z,99304.05
2023-07-21T20:54:17.095Z,99307.46
2023-07-21T20:57:19.789Z,99311.48
2023-07-21T21:00:24.736Z,99313.56
2023-07-21T21:03:27.553Z,99305.32
2023-07-21T21:06:31.034Z,99301.29
2023-07-21T21:09:35.018Z,99311.54
2023-07-21T21:12:38.387Z,99313.35
2023-07-21T21:15:41.014Z,99316.36
2023-07-21T21:18:43.694Z,99312.71
2023-07-21T21:21:46.315Z,99314.85
2023-07-21T21:24:54.152Z,99314.73
2023-07-21T21:27:57.231Z,99304.30
2023-07-21T21:31:02.193Z,99311.20
2023-07-21T21:34:04.882Z,99312.86
2023-07-21T21:37:07.738Z,99311.20
2023-07-21T21:40:11.537Z,99313.71
2023-07-21T21:43:14.258Z,99316.48
2023-07-21T21:46:17.106Z,99311.09
2023-07-21T21:49:20.963Z,99314.23
2023-07-21T21:52:23.598Z,99314.31
2023-07-21T21:55:26.374Z,99312.23
2023-07-21T21:58:33.423Z,99305.58
2023-07-21T22:01:36.184Z,99303.44
2023-07-21T22:04:38.903Z,99297.83
2023-07-21T22:07:41.636Z,99297.08
2023-07-21T22:10:44.330Z,99299.67
2023-07-21T22:13:47.089Z,99299.67
2023-07-21T22:16:49.809Z,99305.52
2023-07-21T22:20:04.322Z,99305.65
2023-07-21T22:23:13.884Z,99309.10
2023-07-21T22:26:16.567Z,99307.59
2023-07-21T22:29:19.335Z,99302.91
2023-07-21T22:32:25.166Z,99306.25
2023-07-21T22:35:29.093Z,99299.90
2023-07-21T22:38:31.724Z,99300.02
2023-07-21T22:41:34.510Z,99297.99
2023-07-21T22:44:37.317Z,99296.71
2023-07-21T22:47:40.073Z,99299.13
2023-07-21T22:50:42.732Z,99305.04
2023-07-21T22:53:45.459Z,99302.10
2023-07-21T22:56:48.404Z,99298.87
2023-07-21T22:59:51.114Z,99300.98
2023-07-21T23:02:53.799Z,99302.04
2023-07-21T23:05:56.837Z,99302.44
2023-07-21T23:08:59.560Z,99305.70
2023-07-21T23:12:03.031Z,99306.52
2023-07-21T23:15:06.537Z,99307.81
2023-07-21T23:18:09.507Z,99310.00
2023-07-21T23:21:12.305Z,99313.38
2023-07-21T23:24:15.784Z,99315.56
2023-07-21T23:27:18.616Z,99316.02
2023-07-21T23:30:21.372Z,99307.50
2023-07-21T23:33:24.014Z,99310.59
2023-07-21T23:36:28.185Z,99307.60
2023-07-21T23:39:32.673Z,99309.86
2023-07-21T23:42:35.408Z,99310.23
2023-07-21T23:45:38.095Z,99316.85
2023-07-21T23:48:40.736Z,99315.27
2023-07-21T23:51:43.385Z,99311.84
2023-07-21T23:54:46.060Z,99318.00
2023-07-21T23:57:48.684Z,99317.21
